createdAt,value
2022-07-26T00:01:05.053Z,64.20
2022-07-26T00:03:32.715Z,63.96
2022-07-26T00:05:59.666Z,63.89
2022-07-26T00:08:26.177Z,63.91
2022-07-26T00:10:53.057Z,63.71
2022-07-26T00:13:20.884Z,63.55
2022-07-26T00:15:48.547Z,63.35
2022-07-26T00:18:15.708Z,63.28
2022-07-26T00:20:42.463Z,62.99
2022-07-26T00:23:09.447Z,63.08
2022-07-26T00:25:36.595Z,62.99
2022-07-26T00:28:03.663Z,62.89
2022-07-26T00:30:30.182Z,62.85
2022-07-26T00:32:56.834Z,62.77
2022-07-26T00:35:23.396Z,62.51
2022-07-26T00:37:50.155Z,62.30
2022-07-26T00:40:17.363Z,61.96
2022-07-26T00:42:44.156Z,61.82
2022-07-26T00:45:12.483Z,61.66
2022-07-26T00:47:39.163Z,61.39
2022-07-26T00:50:08.009Z,61.28
2022-07-26T00:52:34.604Z,61.33
2022-07-26T00:55:01.239Z,61.05
2022-07-26T00:57:28.085Z,61.34
2022-07-26T00:59:54.942Z,61.08
2022-07-26T01:02:22.284Z,61.23
2022-07-26T01:04:48.734Z,61.20
2022-07-26T01:07:15.877Z,61.24
2022-07-26T01:09:42.968Z,61.22
2022-07-26T01:12:09.432Z,61.34
2022-07-26T01:14:35.973Z,61.35
2022-07-26T01:17:02.456Z,61.13
2022-07-26T01:19:28.904Z,61.26
2022-07-26T01:21:55.555Z,61.19
2022-07-26T01:24:21.994Z,61.15
2022-07-26T01:26:48.418Z,61.09
2022-07-26T01:29:14.859Z,61.17
2022-07-26T01:31:41.474Z,61.07
2022-07-26T01:34:08.267Z,60.99
2022-07-26T01:36:35.486Z,60.91
2022-07-26T01:39:02.141Z,60.87
2022-07-26T01:41:37.404Z,60.92
2022-07-26T01:44:06.698Z,60.90
2022-07-26T01:46:34.528Z,61.15
2022-07-26T01:49:01.778Z,61.33
2022-07-26T01:51:28.573Z,61.55
2022-07-26T01:53:55.038Z,61.67
2022-07-26T01:56:21.468Z,61.73
2022-07-26T01:58:47.905Z,61.92
2022-07-26T02:01:14.327Z,61.99
2022-07-26T02:03:40.788Z,61.91
2022-07-26T02:06:07.506Z,61.88
2022-07-26T02:08:33.966Z,61.86
2022-07-26T02:11:03.385Z,61.75
2022-07-26T02:13:41.521Z,61.83
2022-07-26T02:16:11.847Z,62.20
2022-07-26T02:18:40.344Z,62.17
2022-07-26T02:21:07.854Z,62.08
2022-07-26T02:23:35.409Z,62.23
2022-07-26T02:26:07.164Z,62.46
2022-07-26T02:28:33.551Z,62.30
2022-07-26T02:30:59.960Z,62.68
2022-07-26T02:33:26.427Z,62.55
2022-07-26T02:35:52.897Z,62.71
2022-07-26T02:38:19.402Z,62.77
2022-07-26T02:40:46.294Z,63.18
2022-07-26T02:43:12.709Z,63.23
2022-07-26T02:45:39.422Z,63.29
2022-07-26T02:48:06.433Z,63.38
2022-07-26T02:50:33.846Z,63.46
2022-07-26T02:53:00.505Z,63.39
2022-07-26T02:55:27.260Z,63.67
2022-07-26T02:57:54.286Z,63.82
2022-07-26T03:00:24.296Z,63.63
2022-07-26T03:02:51.569Z,63.82
2022-07-26T03:05:19.390Z,64.01
2022-07-26T03:07:46.629Z,64.02
2022-07-26T03:10:13.731Z,63.81
2022-07-26T03:12:40.219Z,63.87
2022-07-26T03:15:06.999Z,63.65
2022-07-26T03:17:33.426Z,63.87
2022-07-26T03:19:59.991Z,63.94
2022-07-26T03:22:26.417Z,64.08
2022-07-26T03:24:52.907Z,64.04
2022-07-26T03:27:19.332Z,64.21
2022-07-26T03:29:45.728Z,64.35
2022-07-26T03:32:12.175Z,64.34
2022-07-26T03:34:38.572Z,64.33
2022-07-26T03:37:04.997Z,64.51
2022-07-26T03:39:31.472Z,64.60
2022-07-26T03:41:57.942Z,64.86
2022-07-26T03:44:24.358Z,65.77
2022-07-26T03:46:50.756Z,66.87
2022-07-26T03:49:17.591Z,67.79
2022-07-26T03:51:44.334Z,68.40
2022-07-26T03:54:11.368Z,68.92
2022-07-26T03:56:38.597Z,69.24
2022-07-26T03:59:07.335Z,69.61
2022-07-26T04:01:35.487Z,69.61
2022-07-26T04:04:02.749Z,69.76
2022-07-26T04:06:29.927Z,69.90
2022-07-26T04:08:56.560Z,70.13
2022-07-26T04:11:23.229Z,70.13
2022-07-26T04:13:54.319Z,70.33
2022-07-26T04:16:20.750Z,70.16
2022-07-26T04:18:47.200Z,70.80
2022-07-26T04:21:13.583Z,70.83
2022-07-26T04:23:39.986Z,70.68
2022-07-26T04:26:06.488Z,70.47
2022-07-26T04:28:33.247Z,70.49
2022-07-26T04:31:00.845Z,70.66
2022-07-26T04:33:27.703Z,70.49
2022-07-26T04:35:54.426Z,69.91
2022-07-26T04:38:20.858Z,69.78
2022-07-26T04:40:47.314Z,69.32
2022-07-26T04:43:15.710Z,69.84
2022-07-26T04:45:46.333Z,70.29
2022-07-26T04:48:13.862Z,70.28
2022-07-26T04:50:42.295Z,70.13
2022-07-26T04:53:11.192Z,70.06
2022-07-26T04:55:38.405Z,70.23
2022-07-26T04:58:05.536Z,70.61
2022-07-26T05:00:31.958Z,70.67
2022-07-26T05:03:00.762Z,70.41
2022-07-26T05:05:30.205Z,70.27
2022-07-26T05:07:59.281Z,69.88
2022-07-26T05:10:36.614Z,70.04
2022-07-26T05:13:05.165Z,70.16
2022-07-26T05:15:35.385Z,70.45
2022-07-26T05:18:13.623Z,69.95
2022-07-26T05:20:40.399Z,70.40
2022-07-26T05:23:07.364Z,70.50
2022-07-26T05:25:33.913Z,70.53
2022-07-26T05:28:00.343Z,70.56
2022-07-26T05:30:26.867Z,70.80
2022-07-26T05:32:53.333Z,70.50
2022-07-26T05:35:19.977Z,70.21
2022-07-26T05:37:46.482Z,70.44
2022-07-26T05:40:13.584Z,70.45
2022-07-26T05:42:40.051Z,70.00
2022-07-26T05:45:07.276Z,69.71
2022-07-26T05:47:33.943Z,69.47
2022-07-26T05:50:00.697Z,69.61
2022-07-26T05:52:27.102Z,69.51
2022-07-26T05:54:53.551Z,69.42
2022-07-26T05:57:19.958Z,69.24
2022-07-26T05:59:46.351Z,69.41
2022-07-26T06:02:12.815Z,69.48
2022-07-26T06:04:39.236Z,68.87
2022-07-26T06:07:05.687Z,68.70
2022-07-26T06:09:32.126Z,69.31
2022-07-26T06:11:58.519Z,69.41
2022-07-26T06:14:25.115Z,69.29
2022-07-26T06:16:51.602Z,69.08
2022-07-26T06:19:18.097Z,69.55
2022-07-26T06:21:45.982Z,69.77
2022-07-26T06:24:13.336Z,69.35
2022-07-26T06:26:39.799Z,69.39
2022-07-26T06:29:06.324Z,69.52
2022-07-26T06:31:32.991Z,69.58
2022-07-26T06:33:59.485Z,69.24
2022-07-26T06:36:30.273Z,68.90
2022-07-26T06:38:57.349Z,68.63
2022-07-26T06:41:24.054Z,68.81
2022-07-26T06:43:50.486Z,68.27
2022-07-26T06:46:17.042Z,67.92
2022-07-26T06:48:47.317Z,67.88
2022-07-26T06:51:14.239Z,67.97
2022-07-26T06:53:40.688Z,68.04
2022-07-26T06:56:07.650Z,67.76
2022-07-26T06:58:34.199Z,67.08
2022-07-26T07:01:00.706Z,66.58
2022-07-26T07:03:27.204Z,66.42
2022-07-26T07:05:53.606Z,66.31
2022-07-26T07:08:21.485Z,66.61
2022-07-26T07:10:50.926Z,66.33
2022-07-26T07:13:18.066Z,66.98
2022-07-26T07:15:45.043Z,66.45
2022-07-26T07:18:11.887Z,65.86
2022-07-26T07:20:40.062Z,65.50
2022-07-26T07:23:07.638Z,65.55
2022-07-26T07:25:34.229Z,65.17
2022-07-26T07:28:00.659Z,65.95
2022-07-26T07:30:28.064Z,66.16
2022-07-26T07:32:55.622Z,65.61
2022-07-26T07:35:23.299Z,65.89
2022-07-26T07:37:52.978Z,66.13
2022-07-26T07:40:20.628Z,66.60
2022-07-26T07:42:47.092Z,65.74
2022-07-26T07:45:13.543Z,65.47
2022-07-26T07:47:40.033Z,65.46
2022-07-26T07:50:07.212Z,65.68
2022-07-26T07:52:33.690Z,65.89
2022-07-26T07:55:28.713Z,66.03
2022-07-26T07:57:46.514Z,65.42
2022-07-26T08:00:16.010Z,65.39
2022-07-26T08:02:42.781Z,65.20
2022-07-26T08:05:11.435Z,65.09
2022-07-26T08:07:41.080Z,65.11
2022-07-26T08:10:08.631Z,65.12
2022-07-26T08:12:35.339Z,64.91
2022-07-26T08:15:07.396Z,64.67
2022-07-26T08:17:35.359Z,64.71
2022-07-26T08:20:08.140Z,63.91
2022-07-26T08:22:37.361Z,63.71
2022-07-26T08:25:04.163Z,63.08
2022-07-26T08:27:30.634Z,62.11
2022-07-26T08:29:57.055Z,62.22
2022-07-26T08:32:24.532Z,61.85
2022-07-26T08:34:51.507Z,61.72
2022-07-26T08:37:23.883Z,62.38
2022-07-26T08:39:50.497Z,62.27
2022-07-26T08:42:22.454Z,62.50
2022-07-26T08:44:50.719Z,62.08
2022-07-26T08:47:35.172Z,61.29
2022-07-26T08:50:07.120Z,61.64
2022-07-26T08:52:33.853Z,61.81
2022-07-26T08:55:00.474Z,61.89
2022-07-26T08:57:26.933Z,61.45
2022-07-26T09:00:19.043Z,61.54
2022-07-26T09:02:46.952Z,60.51
2022-07-26T09:05:13.867Z,59.53
2022-07-26T09:07:41.327Z,57.94
2022-07-26T09:10:11.224Z,57.89
2022-07-26T09:12:44.490Z,57.63
2022-07-26T09:15:20.473Z,57.13
2022-07-26T09:17:49.754Z,57.92
2022-07-26T09:20:27.894Z,58.92
2022-07-26T09:23:07.239Z,60.07
2022-07-26T09:25:39.810Z,60.60
2022-07-26T09:28:24.808Z,60.45
2022-07-26T09:31:12.772Z,59.85
2022-07-26T09:33:51.298Z,59.83
2022-07-26T09:36:18.530Z,60.46
2022-07-26T09:38:51.801Z,60.29
2022-07-26T09:41:23.654Z,60.26
2022-07-26T09:43:53.944Z,60.37
2022-07-26T09:46:23.205Z,60.30
2022-07-26T09:49:09.925Z,59.86
2022-07-26T09:51:48.049Z,59.43
2022-07-26T09:54:35.435Z,59.30
2022-07-26T09:57:02.670Z,59.41
2022-07-26T09:59:29.701Z,59.75
2022-07-26T10:01:58.651Z,59.16
2022-07-26T10:04:26.593Z,59.63
2022-07-26T10:06:53.493Z,58.97
2022-07-26T10:09:22.811Z,58.82
2022-07-26T10:11:55.259Z,57.84
2022-07-26T10:14:33.685Z,58.29
2022-07-26T10:17:02.014Z,58.37
2022-07-26T10:19:45.239Z,58.63
2022-07-26T10:22:33.922Z,58.21
2022-07-26T10:25:18.819Z,58.25
2022-07-26T10:27:46.709Z,58.42
2022-07-26T10:30:22.594Z,57.80
2022-07-26T10:32:52.136Z,57.80
2022-07-26T10:35:38.796Z,57.42
2022-07-26T10:38:08.514Z,57.40
2022-07-26T10:40:39.612Z,56.64
2022-07-26T10:43:37.985Z,56.82
2022-07-26T10:46:18.607Z,56.80
2022-07-26T10:48:58.775Z,56.17
2022-07-26T10:51:27.709Z,56.78
2022-07-26T10:54:06.105Z,56.83
2022-07-26T10:56:33.923Z,56.93
2022-07-26T10:59:01.145Z,56.72
2022-07-26T11:01:52.428Z,56.19
2022-07-26T11:04:20.210Z,56.44
2022-07-26T11:06:46.742Z,56.51
2022-07-26T11:09:13.741Z,56.99
2022-07-26T11:11:46.610Z,57.04
2022-07-26T11:14:16.881Z,56.41
2022-07-26T11:16:48.893Z,56.01
2022-07-26T11:19:17.911Z,55.56
2022-07-26T11:21:45.945Z,55.20
2022-07-26T11:24:12.839Z,55.41
2022-07-26T11:26:46.920Z,54.95
2022-07-26T11:29:17.121Z,54.98
2022-07-26T11:31:51.242Z,54.73
2022-07-26T11:34:27.015Z,55.04
2022-07-26T11:36:55.952Z,54.83
2022-07-26T11:39:24.916Z,53.27
2022-07-26T11:41:57.677Z,52.99
2022-07-26T11:44:24.392Z,52.52
2022-07-26T11:46:51.574Z,52.69
2022-07-26T11:49:52.131Z,53.51
2022-07-26T11:52:13.075Z,54.87
2022-07-26T11:54:46.865Z,54.18
2022-07-26T11:57:13.852Z,52.49
2022-07-26T11:59:40.934Z,52.03
2022-07-26T12:02:09.149Z,51.01
2022-07-26T12:04:38.623Z,51.37
2022-07-26T12:07:10.764Z,51.36
2022-07-26T12:09:39.885Z,51.78
2022-07-26T12:12:18.531Z,51.46
2022-07-26T12:14:56.314Z,51.58
2022-07-26T12:17:22.837Z,51.26
2022-07-26T12:19:49.300Z,51.95
2022-07-26T12:22:18.311Z,51.26
2022-07-26T12:24:58.213Z,50.38
2022-07-26T12:27:26.723Z,49.90
2022-07-26T12:30:00.860Z,49.50
2022-07-26T12:32:32.333Z,49.56
2022-07-26T12:35:30.522Z,49.29
2022-07-26T12:37:57.187Z,48.46
2022-07-26T12:40:27.377Z,49.02
2022-07-26T12:43:00.762Z,47.85
2022-07-26T12:45:29.979Z,48.48
2022-07-26T12:47:57.958Z,48.12
2022-07-26T12:50:26.551Z,48.33
2022-07-26T12:53:00.351Z,47.84
2022-07-26T12:55:27.432Z,47.44
2022-07-26T12:57:55.873Z,47.40
2022-07-26T13:00:24.267Z,48.01
2022-07-26T13:02:52.817Z,47.29
2022-07-26T13:05:19.332Z,46.75
2022-07-26T13:07:46.026Z,46.85
2022-07-26T13:12:59.194Z,46.54
2022-07-26T13:15:36.803Z,46.34
2022-07-26T13:18:08.493Z,46.63
2022-07-26T13:20:38.477Z,46.78
2022-07-26T13:23:06.283Z,47.05
2022-07-26T13:25:38.544Z,46.38
2022-07-26T13:28:07.429Z,46.10
2022-07-26T13:30:33.955Z,46.69
2022-07-26T13:33:00.443Z,46.94
2022-07-26T13:35:26.981Z,47.78
2022-07-26T13:37:53.382Z,47.14
2022-07-26T13:40:19.866Z,46.60
2022-07-26T13:42:47.074Z,46.60
2022-07-26T13:45:13.490Z,45.59
2022-07-26T13:47:39.930Z,45.68
2022-07-26T13:50:07.771Z,46.54
2022-07-26T13:52:34.468Z,46.80
2022-07-26T13:55:00.916Z,47.08
2022-07-26T13:57:49.217Z,46.86
2022-07-26T14:00:14.427Z,47.17
2022-07-26T14:02:40.923Z,46.64
2022-07-26T14:05:08.764Z,47.74
2022-07-26T14:07:35.451Z,47.50
2022-07-26T14:10:01.878Z,47.64
2022-07-26T14:12:28.278Z,47.15
2022-07-26T14:14:54.679Z,46.15
2022-07-26T14:17:21.297Z,46.27
2022-07-26T14:19:47.737Z,46.53
2022-07-26T14:22:14.187Z,45.88
2022-07-26T14:24:40.759Z,45.94
2022-07-26T14:27:07.171Z,45.58
2022-07-26T14:29:33.854Z,46.08
2022-07-26T14:32:00.354Z,46.30
2022-07-26T14:34:26.869Z,45.78
2022-07-26T14:36:53.337Z,45.98
2022-07-26T14:39:19.743Z,46.40
2022-07-26T14:41:47.048Z,46.09
2022-07-26T14:44:13.976Z,46.25
2022-07-26T14:46:40.613Z,46.98
2022-07-26T14:49:07.088Z,46.36
2022-07-26T14:51:33.539Z,46.53
2022-07-26T14:53:59.946Z,46.77
2022-07-26T14:56:26.355Z,46.58
2022-07-26T14:58:53.002Z,46.29
2022-07-26T15:01:19.566Z,46.21
2022-07-26T15:03:46.043Z,45.75
2022-07-26T15:06:12.517Z,45.35
2022-07-26T15:08:38.944Z,45.15
2022-07-26T15:11:05.909Z,45.47
2022-07-26T15:13:32.579Z,46.18
2022-07-26T15:16:00.220Z,46.45
2022-07-26T15:18:26.743Z,46.75
2022-07-26T15:20:53.491Z,47.23
2022-07-26T15:23:19.953Z,47.66
2022-07-26T15:25:48.460Z,48.07
2022-07-26T15:28:15.395Z,46.96
2022-07-26T15:30:42.127Z,47.26
2022-07-26T15:33:08.661Z,47.26
2022-07-26T15:35:36.911Z,47.46
2022-07-26T15:38:04.067Z,47.56
2022-07-26T15:40:30.553Z,47.59
2022-07-26T15:42:57.070Z,47.68
2022-07-26T15:45:24.905Z,47.20
2022-07-26T15:47:55.167Z,47.14
2022-07-26T15:50:24.894Z,46.58
2022-07-26T15:52:51.663Z,46.48
2022-07-26T15:55:19.313Z,46.88
2022-07-26T15:57:46.402Z,47.50
2022-07-26T16:00:15.721Z,47.55
2022-07-26T16:02:42.324Z,46.52
2022-07-26T16:05:10.239Z,46.89
2022-07-26T16:07:37.030Z,47.00
2022-07-26T16:10:04.666Z,47.23
2022-07-26T16:12:31.080Z,47.64
2022-07-26T16:14:57.511Z,47.54
2022-07-26T16:17:23.975Z,47.42
2022-07-26T16:19:50.500Z,46.60
2022-07-26T16:22:17.459Z,47.13
2022-07-26T16:24:43.925Z,46.05
2022-07-26T16:27:10.388Z,46.21
2022-07-26T16:29:36.841Z,46.97
2022-07-26T16:32:03.463Z,47.17
2022-07-26T16:34:30.082Z,47.32
2022-07-26T16:36:56.529Z,47.27
2022-07-26T16:39:22.950Z,46.65
2022-07-26T16:41:49.436Z,46.97
2022-07-26T16:44:15.859Z,46.31
2022-07-26T16:46:42.390Z,46.65
2022-07-26T16:49:11.095Z,46.39
2022-07-26T16:51:37.854Z,46.09
2022-07-26T16:54:04.583Z,46.32
2022-07-26T16:56:31.167Z,45.76
2022-07-26T16:58:57.921Z,45.80
2022-07-26T17:01:24.401Z,45.72
2022-07-26T17:03:51.245Z,45.51
2022-07-26T17:06:17.754Z,45.68
2022-07-26T17:08:44.213Z,46.71
2022-07-26T17:11:10.765Z,47.38
2022-07-26T17:13:37.283Z,47.79
2022-07-26T17:16:03.900Z,48.45
2022-07-26T17:18:30.439Z,48.15
2022-07-26T17:20:58.062Z,48.17
2022-07-26T17:23:24.620Z,48.37
2022-07-26T17:25:51.041Z,48.66
2022-07-26T17:28:17.631Z,48.35
2022-07-26T17:30:44.041Z,48.46
2022-07-26T17:33:10.597Z,48.39
2022-07-26T17:35:37.128Z,48.70
2022-07-26T17:38:04.647Z,49.02
2022-07-26T17:40:33.574Z,48.81
2022-07-26T17:43:00.096Z,49.11
2022-07-26T17:45:26.596Z,49.03
2022-07-26T17:47:53.209Z,48.64
2022-07-26T17:50:35.970Z,48.79
2022-07-26T17:53:03.498Z,48.95
2022-07-26T17:55:29.901Z,49.19
2022-07-26T17:57:56.344Z,48.84
2022-07-26T18:00:23.267Z,49.23
2022-07-26T18:02:53.507Z,48.93
2022-07-26T18:05:20.544Z,49.06
2022-07-26T18:07:47.068Z,48.99
2022-07-26T18:10:14.277Z,49.10
2022-07-26T18:12:40.700Z,49.05
2022-07-26T18:15:07.638Z,49.21
2022-07-26T18:17:34.302Z,49.44
2022-07-26T18:20:00.798Z,48.42
2022-07-26T18:22:27.373Z,48.44
2022-07-26T18:24:53.917Z,48.07
2022-07-26T18:27:20.307Z,48.06
2022-07-26T18:29:46.715Z,48.26
2022-07-26T18:32:13.257Z,48.30
2022-07-26T18:34:39.655Z,48.47
2022-07-26T18:37:19.126Z,48.40
2022-07-26T18:39:45.636Z,48.80
2022-07-26T18:42:12.210Z,49.22
2022-07-26T18:44:38.780Z,48.71
2022-07-26T18:47:06.457Z,48.26
2022-07-26T18:49:34.483Z,48.85
2022-07-26T18:52:08.184Z,48.92
2022-07-26T18:54:36.082Z,49.07
2022-07-26T18:57:02.643Z,49.19
2022-07-26T18:59:29.715Z,49.77
2022-07-26T19:01:57.785Z,49.11
2022-07-26T19:04:24.709Z,49.30
2022-07-26T19:06:51.433Z,49.25
2022-07-26T19:09:18.413Z,49.37
2022-07-26T19:11:47.711Z,48.83
2022-07-26T19:14:14.145Z,48.83
2022-07-26T19:16:40.574Z,49.19
2022-07-26T19:19:07.051Z,49.04
2022-07-26T19:21:33.539Z,48.93
2022-07-26T19:23:59.939Z,48.95
2022-07-26T19:26:27.313Z,49.05
2022-07-26T19:28:53.816Z,49.31
2022-07-26T19:31:20.504Z,49.54
2022-07-26T19:33:46.960Z,49.41
2022-07-26T19:36:13.399Z,49.10
2022-07-26T19:38:43.766Z,49.26
2022-07-26T19:41:15.498Z,49.22
2022-07-26T19:43:42.363Z,49.62
2022-07-26T19:46:08.823Z,49.55
2022-07-26T19:48:35.340Z,49.85
2022-07-26T19:51:01.772Z,50.03
2022-07-26T19:53:28.162Z,50.07
2022-07-26T19:55:54.573Z,50.42
2022-07-26T19:58:20.995Z,50.94
2022-07-26T20:00:53.331Z,50.98
2022-07-26T20:03:19.762Z,51.10
2022-07-26T20:05:46.372Z,51.43
2022-07-26T20:08:13.354Z,51.66
2022-07-26T20:10:40.001Z,52.04
2022-07-26T20:13:06.446Z,52.29
2022-07-26T20:15:33.075Z,52.12
2022-07-26T20:17:59.504Z,52.32
2022-07-26T20:20:25.939Z,52.40
2022-07-26T20:22:52.330Z,52.56
2022-07-26T20:25:21.593Z,52.44
2022-07-26T20:27:51.137Z,52.72
2022-07-26T20:30:18.217Z,52.64
2022-07-26T20:32:44.608Z,52.40
2022-07-26T20:35:11.301Z,52.19
2022-07-26T20:37:37.880Z,52.75
2022-07-26T20:40:05.067Z,52.59
2022-07-26T20:42:34.238Z,52.77
2022-07-26T20:45:01.144Z,52.71
2022-07-26T20:47:27.698Z,52.54
2022-07-26T20:49:55.047Z,52.32
2022-07-26T20:52:25.623Z,52.54
2022-07-26T20:54:52.131Z,52.88
2022-07-26T20:57:18.606Z,52.93
2022-07-26T20:59:45.054Z,52.91
2022-07-26T21:02:11.519Z,52.89
2022-07-26T21:04:38.033Z,52.98
2022-07-26T21:07:04.442Z,52.96
2022-07-26T21:09:31.102Z,52.86
2022-07-26T21:11:57.793Z,53.10
2022-07-26T21:14:24.251Z,52.71
2022-07-26T21:16:50.740Z,52.69
2022-07-26T21:19:17.342Z,52.78
2022-07-26T21:21:43.773Z,52.96
2022-07-26T21:24:11.469Z,52.61
2022-07-26T21:26:38.470Z,52.86
2022-07-26T21:29:05.114Z,53.24
2022-07-26T21:31:31.591Z,52.91
2022-07-26T21:33:59.073Z,53.23
2022-07-26T21:36:25.582Z,53.34
2022-07-26T21:38:51.987Z,53.10
2022-07-26T21:41:18.398Z,53.23
2022-07-26T21:43:44.794Z,53.18
2022-07-26T21:46:13.241Z,53.16
2022-07-26T21:48:40.540Z,53.53
2022-07-26T21:51:07.015Z,53.67
2022-07-26T21:53:33.406Z,53.63
2022-07-26T21:55:59.786Z,53.97
2022-07-26T21:58:27.992Z,53.91
2022-07-26T22:01:03.211Z,54.03
2022-07-26T22:03:35.310Z,54.09
2022-07-26T22:06:01.820Z,53.97
2022-07-26T22:08:28.290Z,54.14
2022-07-26T22:10:54.715Z,53.99
2022-07-26T22:13:21.125Z,54.33
2022-07-26T22:15:47.658Z,54.56
2022-07-26T22:18:14.196Z,54.32
2022-07-26T22:20:41.618Z,54.83
2022-07-26T22:23:09.998Z,54.28
2022-07-26T22:25:37.293Z,54.38
2022-07-26T22:28:05.795Z,54.68
2022-07-26T22:30:32.490Z,54.49
2022-07-26T22:33:00.626Z,54.42
2022-07-26T22:35:36.287Z,54.59
2022-07-26T22:38:08.398Z,54.79
2022-07-26T22:40:36.230Z,54.88
2022-07-26T22:43:02.864Z,54.69
2022-07-26T22:45:30.350Z,55.19
2022-07-26T22:47:57.219Z,54.73
2022-07-26T22:50:24.918Z,54.74
2022-07-26T22:52:51.698Z,55.00
2022-07-26T22:55:18.109Z,54.78
2022-07-26T22:57:45.199Z,54.87
2022-07-26T23:00:14.327Z,55.12
2022-07-26T23:02:40.860Z,54.80
2022-07-26T23:05:08.166Z,54.91
2022-07-26T23:07:35.896Z,54.41
2022-07-26T23:10:03.915Z,54.37
2022-07-26T23:12:30.717Z,54.77
2022-07-26T23:14:57.116Z,54.48
2022-07-26T23:17:23.856Z,54.73
2022-07-26T23:19:50.315Z,55.10
2022-07-26T23:22:16.846Z,54.93
2022-07-26T23:24:43.610Z,55.01
2022-07-26T23:27:10.315Z,54.90
2022-07-26T23:29:37.098Z,54.90
2022-07-26T23:32:03.667Z,54.90
2022-07-26T23:34:30.058Z,54.82
2022-07-26T23:36:56.516Z,54.86
2022-07-26T23:39:22.971Z,55.15
2022-07-26T23:41:49.482Z,54.96
2022-07-26T23:44:15.877Z,55.10
2022-07-26T23:46:42.364Z,54.81
2022-07-26T23:49:09.225Z,54.81
2022-07-26T23:51:35.973Z,54.63
2022-07-26T23:54:02.398Z,54.38
2022-07-26T23:56:28.835Z,54.50
2022-07-26T23:58:55.265Z,54.48
